Weather observations for the past three days for
Augusta Daniel Field
Imperial (Metric)
Date Time (edt) Wind (mph) Vis. (mi.) Weather Sky Cond. Temperature (ºF) Relative Humidity Wind Chill (°F) Heat Index (°F) Pressure Precipitation (in)
Air Dwpt 6 hour altimeter (in) sea level (mb) 1 hr 3 hr 6 hr
Max. Min.
03 02:53 SW 5 10.00 Fair CLR 80.1 71.1 74% 84 30.03 1016.3
03 01:53 S 3 10.00 Fair CLR 81 71.1 91.9 81 72% 85 30.05 1016.9
03 00:53 SE 5 10.00 Fair CLR 82 72 72% 87 30.05 1017.0
02 23:53 S 6 10.00 Fair CLR 84 72 67% 90 30.06 1017.2
02 22:53 S 7 10.00 Fair CLR 86 72 63% 92 30.06 1017.1
02 21:53 S 3 10.00 Fair CLR 88 72 59% 95 30.05 1017.1
02 20:53 SE 3 10.00 Fair CLR 90 71.1 54% 96 30.03 1016.3
02 19:53 SE 3 10.00 A Few Clouds FEW065 91.9 69.1 97 91.9 47% 97 30.02 1015.9
02 18:53 SE 5 10.00 Fair CLR 95 69.1 43% 101 30.01 1015.6
02 17:53 Vrbl 3 10.00 A Few Clouds FEW095 95 68 41% 100 30.02 1015.8
02 16:53 SE 7 10.00 A Few Clouds FEW080 95 70 44% 101 30.02 1016.1
02 15:53 NE 9 10.00 Fair CLR 96.1 69.1 41% 102 30.04 1016.7
02 14:53 N 5 10.00 Fair CLR 95 69.1 43% 101 30.06 1017.2
02 13:53 Calm 10.00 Fair CLR 91.9 69.1 93.9 77 47% 97 30.08 1017.9
02 12:53 SW 5 10.00 A Few Clouds FEW050 90 70 52% 95 30.1 1018.5
02 11:53 NW 3 10.00 Fair CLR 91 71.1 52% 98 30.11 1018.9
02 10:53 Calm 10.00 Fair CLR 88 71.1 57% 94 30.11 1019.0
02 09:53 Vrbl 5 10.00 Fair CLR 86 73 65% 93 30.11 1018.9
02 08:53 Calm 10.00 Fair CLR 79 73.9 85% 83 30.11 1019.1
02 07:53 Calm 10.00 Fair CLR 75.9 73 80.1 75.9 91% 76 30.11 1018.9
02 06:53 SE 3 10.00 Fair CLR 75.9 73 91% 76 30.09 1018.4
02 05:53 Calm 10.00 Fair CLR 77 73 88% 78 30.08 1018.0
02 04:53 Calm 10.00 Fair CLR 78.1 73 85% 81 30.07 1017.7
02 03:53 SW 3 10.00 Fair CLR 78.1 73 85% 81 30.06 1017.4
02 02:53 SW 5 10.00 Fair CLR 79 73 82% 82 30.07 1017.5
02 01:53 SW 7 10.00 Fair CLR 80.1 73 90 80.1 79% 84 30.08 1017.9
02 00:53 S 6 10.00 Fair CLR 81 72 74% 85 30.08 1017.8
01 23:53 SE 3 10.00 Fair CLR 84 72 67% 90 30.07 1017.5
01 22:53 SE 5 10.00 Fair CLR 84 73 70% 90 30.07 1017.6
01 21:53 SE 3 10.00 Fair CLR 88 71.1 57% 94 30.06 1017.3
01 20:53 Calm 10.00 Fair CLR 89.1 70 53% 94 30.04 1016.7
01 19:53 SE 3 10.00 Fair CLR 90 70 96.1 90 52% 95 30.04 1016.5
01 18:53 SE 8 10.00 Fair CLR 91.9 69.1 47% 97 30.04 1016.5
01 17:53 Vrbl 6 10.00 Partly Cloudy SCT065 93.9 69.1 44% 99 30.03 1016.3
01 16:53 N 8 10.00 A Few Clouds FEW065 96.1 66.9 39% 100 30.04 1016.5
01 15:53 N 7 10.00 Fair CLR 95 66.9 40% 99 30.05 1016.9
01 14:53 N 7 10.00 Partly Cloudy SCT050 91.9 69.1 47% 97 30.07 1017.6
01 13:53 N 8 10.00 A Few Clouds FEW048 91 70 91.9 77 50% 97 30.09 1018.3
01 12:53 Vrbl 3 10.00 A Few Clouds FEW042 91 69.1 49% 96 30.11 1018.9
01 11:53 Calm 10.00 Fair CLR 89.1 71.1 55% 95 30.14 1019.8
01 10:53 N 7 10.00 Fair CLR 86 73 65% 93 30.14 1019.9
01 09:53 NW 6 10.00 Fair CLR 82.9 72 70% 88 30.13 1019.7
01 08:53 NW 6 10.00 Fair CLR 80.1 73 79% 84 30.13 1019.7
01 07:53 NW 5 10.00 Fair CLR 77 73 79 75 88% 78 30.13 1019.5
01 06:53 Calm 10.00 Fair CLR 75.9 72 88% 76 30.1 1018.7
01 05:53 Calm 10.00 Fair CLR 75.9 72 88% 76 30.09 1018.3
01 04:53 Calm 10.00 Fair CLR 75.9 73 91% 76 30.09 1018.3
01 03:53 Calm 10.00 Fair CLR 77 73 88% 78 30.09 1018.1
01 02:53 Calm 10.00 Fair CLR 77 73 88% 78 30.09 1018.4
01 01:53 S 3 10.00 Fair CLR 79 72 89.1 79 79% 82 30.11 1018.8
01 00:53 S 5 10.00 Fair CLR 80.1 72 76% 84 30.11 1019.0
31 23:53 S 3 10.00 A Few Clouds FEW055 82 71.1 69% 86 30.11 1019.0
31 22:53 SE 5 10.00 Fair CLR 84 68 59% 87 30.1 1018.7
31 21:53 E 3 10.00 Fair CLR 84.9 68 57% 88 30.1 1018.5
31 20:53 E 3 10.00 Fair CLR 87.1 66.9 51% 90 30.07 1017.7
31 19:53 NE 6 10.00 Fair CLR 89.1 68 93 89.1 50% 93 30.06 1017.2
31 18:53 NE 7 10.00 Fair CLR 91.9 66.9 44% 95 30.06 1017.3
31 17:53 Vrbl 6 10.00 A Few Clouds FEW055 93 66.9 42% 97 30.05 1017.0
31 16:53 E 5 10.00 Fair CLR 93 68 44% 97 30.06 1017.4
31 15:53 N 8 10.00 Partly Cloudy SCT050 91.9 69.1 47% 97 30.08 1017.9
31 14:53 Vrbl 7 10.00 Fair CLR 91.9 69.1 47% 97 30.1 1018.6
31 13:53 N 6 10.00 A Few Clouds FEW060 89.1 69.1 89.1 75 52% 94 30.13 1019.6
31 12:53 NE 5 10.00 A Few Clouds FEW035 88 71.1 57% 94 30.15 1020.2
31 11:53 Vrbl 3 10.00 Partly Cloudy SCT027 SCT042 SCT050 84.9 71.1 63% 90 30.16 1020.5
31 10:53 NW 6 10.00 A Few Clouds FEW024 84 72 67% 90 30.15 1020.3
31 09:53 N 5 10.00 A Few Clouds FEW015 81 73.9 79% 86 30.15 1020.6
31 08:53 Calm 10.00 Partly Cloudy SCT010 78.1 73.9 87% 81 30.15 1020.4
31 07:53 Calm 10.00 Fair CLR 75 73 77 73.9 94% 73 30.14 1020.1
31 06:53 SE 3 10.00 Fair CLR 73.9 72 94% 30.13 1019.8
31 05:53 N 3 10.00 Fair CLR 73.9 72 94% 30.12 1019.3
31 04:53 Calm 10.00 Fair CLR 75 72 90% 74 30.12 1019.1
31 03:53 SE 3 10.00 Fair CLR 75.9 73 91% 76 30.11 1018.9
Date Time (edt) Wind (mph) Vis. (mi.) Weather Sky Cond. Air Dwpt Max. Min. Relative Humidity Wind Chill (°F) Heat Index (°F) altimeter (in) sea level (mb) 1 hr 3 hr 6 hr
6 hour
Temperature (ºF) Pressure Precipitation (in)